3 de julio de 2022

Hora Código Tiempo Temp. Visibilidad Cielo nuboso Viento METAR/SPECI
7:20 a. m.
L
61 °F 0 mi - Var 000° 0 kt METAR ETNT 030520Z AUTO /////KT //// // ////// 16/14 Q1016 ///
6:20 a. m.
L
59 °F 0 mi - Var 000° 0 kt METAR ETNT 030420Z AUTO /////KT //// // ////// 15/14 Q1016 ///
5:20 a. m.
L
55 °F 0 mi - Var 000° 0 kt METAR ETNT 030320Z AUTO /////KT //// // ////// 13/12 Q1016 ///
4:20 a. m.
L
59 °F 0 mi - Var 000° 0 kt METAR ETNT 030220Z AUTO /////KT //// // ////// 15/13 Q1016 ///
3:20 a. m.
L
59 °F 0 mi - Var 000° 0 kt METAR ETNT 030120Z AUTO /////KT //// // ////// 15/13 Q1016 ///
2:20 a. m.
L
61 °F 0 mi - Var 000° 0 kt METAR ETNT 030020Z AUTO /////KT //// // ////// 16/13 Q1017 ///
1:20 a. m.
L
61 °F 0 mi - Var 000° 0 kt METAR ETNT 022320Z AUTO /////KT //// // ////// 16/13 Q1017 ///
12:20 a. m.
L
63 °F 0 mi - Var 000° 0 kt METAR ETNT 022220Z AUTO /////KT //// // ////// 17/13 Q1018 ///

2 de julio de 2022

Hora Código Tiempo Temp. Visibilidad Cielo nuboso Viento METAR/SPECI
11:20 p. m.
L
63 °F 0 mi - Var 000° 0 kt METAR ETNT 022120Z AUTO /////KT //// // ////// 17/13 Q1018 ///
10:20 p. m.
L
63 °F 0 mi - Var 000° 0 kt METAR ETNT 022020Z AUTO /////KT //// // ////// 17/13 Q1018 ///
9:20 p. m.
L
63 °F 0 mi - Var 000° 0 kt METAR ETNT 021920Z AUTO /////KT //// // ////// 17/12 Q1018 ///
8:20 p. m.
L
66 °F 0 mi - Var 000° 0 kt METAR ETNT 021820Z AUTO /////KT //// // ////// 19/12 Q1019 ///
7:20 p. m.
L
72 °F 0 mi - Var 000° 0 kt METAR ETNT 021720Z AUTO /////KT //// // ////// 22/10 Q1019 ///
6:20 p. m.
L
72 °F 0 mi - Var 000° 0 kt METAR ETNT 021620Z AUTO /////KT //// // ////// 22/10 Q1019 ///
5:20 p. m.
L
73 °F 0 mi - Var 000° 0 kt METAR ETNT 021520Z AUTO /////KT //// // ////// 23/09 Q1020 ///
4:20 p. m.
L
72 °F 0 mi - Var 000° 0 kt METAR ETNT 021420Z AUTO /////KT //// // ////// 22/10 Q1020 ///
3:20 p. m.
L
72 °F 0 mi - Var 000° 0 kt METAR ETNT 021320Z AUTO /////KT //// // ////// 22/09 Q1020 ///
2:20 p. m.
L
72 °F 0 mi - Var 000° 0 kt METAR ETNT 021220Z AUTO /////KT //// // ////// 22/08 Q1021 ///
1:20 p. m.
L
72 °F 0 mi - Var 000° 0 kt METAR ETNT 021120Z AUTO /////KT //// // ////// 22/09 Q1021 ///
12:20 p. m.
L
70 °F 0 mi - Var 000° 0 kt METAR ETNT 021020Z AUTO /////KT //// // ////// 21/08 Q1021 ///
11:20 a. m.
L
68 °F 0 mi - Var 000° 0 kt METAR ETNT 020920Z AUTO /////KT //// // ////// 20/09 Q1021 ///
10:20 a. m.
L
66 °F 0 mi - Var 000° 0 kt METAR ETNT 020820Z AUTO /////KT //// // ////// 19/09 Q1021 ///
9:20 a. m.
L
64 °F 0 mi - Var 000° 0 kt METAR ETNT 020720Z AUTO /////KT //// // ////// 18/11 Q1021 ///
8:20 a. m.
L
61 °F 0 mi - Var 000° 0 kt METAR ETNT 020620Z AUTO /////KT //// // ////// 16/12 Q1021 ///
7:20 a. m.
L
57 °F 0 mi - Var 000° 0 kt METAR ETNT 020520Z AUTO /////KT //// // ////// 14/11 Q1020 ///
6:20 a. m.
L
55 °F 0 mi - Var 000° 0 kt METAR ETNT 020420Z AUTO /////KT //// // ////// 13/10 Q1020 ///
5:20 a. m.
L
54 °F 0 mi - Var 000° 0 kt METAR ETNT 020320Z AUTO /////KT //// // ////// 12/10 Q1020 ///
4:20 a. m.
L
54 °F 0 mi - Var 000° 0 kt METAR ETNT 020220Z AUTO /////KT //// // ////// 12/10 Q1020 ///
3:20 a. m.
L
54 °F 0 mi - Var 000° 0 kt METAR ETNT 020120Z AUTO /////KT //// // ////// 12/11 Q1020 ///
2:20 a. m.
L
52 °F 0 mi - Var 000° 0 kt METAR ETNT 020020Z AUTO /////KT //// // ////// 11/11 Q1020 ///
1:20 a. m.
L
52 °F 0 mi - Var 000° 0 kt METAR ETNT 012320Z AUTO /////KT //// // ////// 11/10 Q1020 ///
12:20 a. m.
L
52 °F 0 mi - Var 000° 0 kt METAR ETNT 012220Z AUTO /////KT //// // ////// 11/10 Q1020 ///

1 de julio de 2022

Hora Código Tiempo Temp. Visibilidad Cielo nuboso Viento METAR/SPECI
11:20 p. m.
L
54 °F 0 mi - Var 000° 0 kt METAR ETNT 012120Z AUTO /////KT //// // ////// 12/11 Q1019 ///
10:20 p. m.
L
59 °F 0 mi - Var 000° 0 kt METAR ETNT 012020Z AUTO /////KT //// // ////// 15/11 Q1019 ///
9:20 p. m.
L
63 °F 0 mi - Var 000° 0 kt METAR ETNT 011920Z AUTO /////KT //// // ////// 17/11 Q1018 ///
8:20 p. m.
L
66 °F 0 mi - Var 000° 0 kt METAR ETNT 011820Z AUTO /////KT //// // ////// 19/10 Q1018 ///
7:20 p. m.
L
66 °F 0 mi - Var 000° 0 kt METAR ETNT 011720Z AUTO /////KT //// // ////// 19/10 Q1017 ///
6:20 p. m.
L
66 °F 0 mi - Var 000° 0 kt METAR ETNT 011620Z AUTO /////KT //// // ////// 19/13 Q1017 ///
5:20 p. m.
L
66 °F 0 mi - Var 000° 0 kt METAR ETNT 011520Z AUTO /////KT //// // ////// 19/12 Q1016 ///
4:20 p. m.
L
66 °F 0 mi - Var 000° 0 kt METAR ETNT 011420Z AUTO /////KT //// // ////// 19/13 Q1016 ///
3:20 p. m.
L
66 °F 0 mi - Var 000° 0 kt METAR ETNT 011320Z AUTO /////KT //// // ////// 19/12 Q1016 ///
2:20 p. m.
L
66 °F 0 mi - Var 000° 0 kt METAR ETNT 011220Z AUTO /////KT //// // ////// 19/13 Q1016 ///
1:20 p. m.
V
64 °F 6¼ mi+ 14.000 ft 220° 220° 6 kt METAR ETNT 011120Z 22006KT 9999 SCT020 BKN140 18/12 Q1015 BLACKBLU
12:20 p. m.
V
64 °F 6¼ mi+ 13.000 ft 210° 210° 9 kt METAR ETNT 011020Z 21009KT 9999 SCT020 BKN130 18/13 Q1015 BLACKBLU
11:20 a. m.
V
63 °F 6¼ mi+ 11.000 ft 230° 230° 8 kt METAR ETNT 010920Z 23008KT 9999 SCT017 BKN110 17/13 Q1015 BLACKBLU
10:20 a. m.
V
61 °F 6¼ mi+ 9.000 ft 230° 230° 8 kt METAR ETNT 010820Z 23008KT 9999 FEW014 SCT050 BKN090 16/13 Q1014 BLACKBLU
9:20 a. m.
V
61 °F 6¼ mi+ 9.000 ft 210° 210° 7 kt METAR ETNT 010720Z 21007KT 9999 FEW014 SCT050 BKN090 16/14 Q1014 BLACKBLU
8:20 a. m.
V
59 °F 6¼ mi+ 5.000 ft 210° 210° 9 kt METAR ETNT 010620Z 21009KT 9999 -RA FEW012 BKN050 BKN090 15/14 Q1014 BLACKBLU
7:20 a. m.
V
59 °F 6¼ mi+ 3.400 ft 210° 210° 8 kt METAR ETNT 010520Z 21008KT 9999 -RA FEW011 BKN034 BKN100 15/13 Q1013 BLACKBLU
6:20 a. m.
V
59 °F 6¼ mi+ 5.000 ft 230° 230° 8 kt METAR ETNT 010420Z 23008KT 9999 SCT015 BKN050 15/14 Q1012 BLACKBLU
5:20 a. m.
L
32 °F 0 mi - Var 000° 0 kt METAR ETNT 010320Z AUTO /////KT //// // ////// ///// Q//// ///
Datos más antiguos

Descarga nuestra aplicación

Acceso fácil a todo el tiempo de la aviación en tu teléfono móvil y tableta.
Con muchas funciones no disponibles en el sitio web, como la compatibilidad sin conexión y una lista personal de aeropuertos.

Nosotros y terceros seguimos tu comportamiento en Internet en nuestro sitio web con cookies. Si continúas, asumimos que estás de acuerdo con nuestra política de cookies. Más información